Time;durP1;ratioP1;P1;durP2;ratioP2;P2;SDS_P1;SDS_P2;PMS_P1;PMS_P2;Temp;Humidity;BMP_temperature;BMP_pressure;BME280_temperature;BME280_humidity;BME280_pressure;Samples;Min_cycle;Max_cycle;Signal;HPM_P1;HPM_P2
2022/06/28 07:59:11;;;;;;;6.32;2.38;;;;;;;16.97;58.94;102052.09;5308161;27;20143;-65
2022/06/28 08:01:42;;;;;;;5.18;2.60;;;;;;;16.96;60.96;102050.44;5299044;28;20036;-65
2022/06/28 08:04:14;;;;;;;6.25;3.00;;;;;;;16.97;61.24;102045.69;5284521;28;20028;-66
2022/06/28 08:06:46;;;;;;;5.40;2.28;;;;;;;17.02;60.04;102042.78;5293080;28;20028;-69
2022/06/28 08:09:17;;;;;;;7.13;2.78;;;;;;;17.15;61.26;102047.63;5291818;28;20061;-68
2022/06/28 08:11:48;;;;;;;8.13;2.47;;;;;;;17.24;60.84;102050.59;5290588;28;20032;-68
2022/06/28 08:14:20;;;;;;;7.25;2.10;;;;;;;17.25;60.75;102047.44;5290041;28;20099;-70
2022/06/28 08:16:52;;;;;;;7.10;1.98;;;;;;;17.31;59.58;102046.25;5289144;28;20157;-71
2022/06/28 08:19:23;;;;;;;5.13;1.83;;;;;;;17.36;58.66;102040.56;5299913;28;20028;-69
2022/06/28 08:21:54;;;;;;;6.65;2.08;;;;;;;17.59;55.32;102047.16;5290751;28;20043;-69
2022/06/28 08:24:26;;;;;;;5.82;2.28;;;;;;;17.54;54.54;102036.03;5290157;28;20518;-69
2022/06/28 08:26:57;;;;;;;5.93;1.90;;;;;;;17.44;53.47;102033.41;5288632;28;20032;-69
2022/06/28 08:29:30;;;;;;;6.82;2.00;;;;;;;17.54;55.67;102029.59;5293585;28;20020;-70
2022/06/28 08:32:02;;;;;;;5.93;1.55;;;;;;;17.68;56.84;102026.81;5289330;28;20038;-69
2022/06/28 08:34:34;;;;;;;2.97;1.73;;;;;;;17.83;54.94;102018.13;5293268;28;20039;-69
2022/06/28 08:37:05;;;;;;;4.95;1.58;;;;;;;17.87;53.16;102024.78;5290591;28;20032;-70
2022/06/28 08:39:37;;;;;;;3.20;1.13;;;;;;;17.96;52.13;102030.50;5299337;28;20030;-69
2022/06/28 08:42:11;;;;;;;3.70;1.85;;;;;;;17.86;51.13;102022.28;5287774;28;20028;-69
2022/06/28 08:44:43;;;;;;;16.67;2.67;;;;;;;18.14;56.10;102018.31;5286708;28;20059;-70
2022/06/28 08:47:18;;;;;;;6.55;1.70;;;;;;;18.08;53.67;102007.53;5288959;28;20476;-69
2022/06/28 08:50:00;;;;;;;2.80;1.45;;;;;;;18.20;54.05;102000.25;5294687;28;20034;-69
2022/06/28 08:52:35;;;;;;;5.78;1.48;;;;;;;18.28;53.36;102009.91;5286851;28;20108;-70
2022/06/28 08:55:07;;;;;;;26.90;21.52;;;;;;;18.34;52.76;102005.00;5284788;28;20391;-69
2022/06/28 08:57:41;;;;;;;21.40;16.90;;;;;;;18.41;52.43;102011.03;5300046;28;20131;-69
2022/06/28 09:00:13;;;;;;;5.10;2.90;;;;;;;18.52;52.49;102014.44;5311918;28;20035;-70
2022/06/28 09:02:46;;;;;;;4.95;1.77;;;;;;;18.46;52.34;102011.75;5306593;28;20026;-69
2022/06/28 09:05:20;;;;;;;6.82;2.65;;;;;;;18.55;52.97;102009.00;5313301;28;20035;-69
2022/06/28 09:07:56;;;;;;;32.22;26.08;;;;;;;18.60;52.87;102008.06;5311071;28;20028;-70
2022/06/28 09:10:28;;;;;;;6.03;2.50;;;;;;;18.67;52.94;102012.09;5289377;28;20109;-70
2022/06/28 09:13:12;;;;;;;5.28;1.85;;;;;;;18.75;52.22;102013.38;5292453;28;20028;-69
2022/06/28 09:15:48;;;;;;;3.00;1.35;;;;;;;18.69;51.60;102009.81;5296988;28;20020;-70
2022/06/28 09:18:24;;;;;;;4.10;1.17;;;;;;;18.58;50.95;101999.94;5297822;28;20475;-70
2022/06/28 09:20:57;;;;;;;2.97;1.50;;;;;;;18.77;51.88;101999.00;5299113;28;20448;-70
2022/06/28 09:23:31;;;;;;;5.03;1.35;;;;;;;18.84;51.92;101991.78;5291348;28;20024;-70
2022/06/28 09:26:09;;;;;;;7.05;1.77;;;;;;;18.80;52.21;101989.94;5299453;28;20656;-71
2022/06/28 09:28:48;;;;;;;5.63;1.30;;;;;;;18.88;52.03;101991.97;5294262;28;20030;-77
2022/06/28 09:31:28;;;;;;;4.30;1.25;;;;;;;19.03;52.87;101983.16;5298130;28;20031;-68
2022/06/28 09:34:00;;;;;;;4.32;1.40;;;;;;;19.18;52.36;101984.75;5300452;28;20028;-70
2022/06/28 09:36:41;;;;;;;5.97;1.50;;;;;;;19.03;52.57;101983.16;5304303;28;20082;-69
2022/06/28 09:39:14;;;;;;;4.05;1.60;;;;;;;19.10;52.10;101971.47;5297770;28;20035;-69
2022/06/28 09:41:48;;;;;;;2.67;1.60;;;;;;;19.18;53.19;101975.50;5296434;28;20024;-69
2022/06/28 09:44:25;;;;;;;8.10;7.30;;;;;;;19.32;53.63;101979.88;5302449;28;20103;-69
2022/06/28 09:46:57;;;;;;;3.72;1.85;;;;;;;19.30;52.23;101976.56;5294063;28;20119;-70
2022/06/28 09:49:29;;;;;;;6.13;1.88;;;;;;;19.48;53.26;101971.03;5302504;28;20442;-69
2022/06/28 09:52:02;;;;;;;3.25;1.45;;;;;;;19.35;50.67;101964.34;5304537;28;20380;-69
2022/06/28 09:54:40;;;;;;;4.80;1.90;;;;;;;19.50;51.58;101963.09;5303755;28;20103;-69
2022/06/28 09:57:12;;;;;;;3.85;1.70;;;;;;;19.38;50.93;101958.09;5301695;28;20388;-69
2022/06/28 09:59:45;;;;;;;5.20;1.80;;;;;;;19.36;51.58;101951.94;5286150;28;20041;-69
2022/06/28 10:02:17;;;;;;;4.03;1.38;;;;;;;19.43;51.87;101955.13;5300959;28;20052;-69
2022/06/28 10:04:49;;;;;;;8.73;5.15;;;;;;;19.65;53.14;101947.78;5288994;28;20020;-69
2022/06/28 10:07:23;;;;;;;3.88;1.58;;;;;;;19.70;52.46;101956.09;5295146;28;20034;-69
2022/06/28 10:09:55;;;;;;;6.00;1.42;;;;;;;19.59;51.98;101954.72;5296046;28;20032;-69
2022/06/28 10:15:24;;;;;;;4.40;3.13;;;;;;;19.86;51.75;101954.50;5291571;28;20032;-68
2022/06/28 10:18:10;;;;;;;3.22;1.52;;;;;;;20.00;52.33;101953.56;5297670;28;20043;-69
2022/06/28 10:20:46;;;;;;;;;;;;;;;20.11;52.20;101943.63;5295566;28;20020;-69
2022/06/28 10:23:27;;;;;;;4.63;1.63;;;;;;;20.05;51.45;101953.41;5302505;28;19927;-69
2022/06/28 10:26:20;;;;;;;7.45;2.30;;;;;;;20.08;50.37;101944.31;5289824;28;20035;-71
2022/06/28 10:29:03;;;;;;;3.47;1.73;;;;;;;20.04;51.12;101934.84;5292479;28;20024;-70
2022/06/28 10:31:36;;;;;;;5.18;1.38;;;;;;;20.07;50.72;101937.00;5293978;28;20051;-69
2022/06/28 10:34:12;;;;;;;2.53;1.40;;;;;;;20.08;51.12;101933.03;5302402;28;20046;-69
2022/06/28 10:36:47;;;;;;;4.95;1.42;;;;;;;20.03;50.72;101924.75;5295000;28;20016;-69
2022/06/28 10:39:28;;;;;;;3.63;1.50;;;;;;;20.30;50.60;101918.84;5293076;28;20451;-70
2022/06/28 10:41:59;;;;;;;3.97;1.50;;;;;;;20.21;49.74;101912.34;5286572;28;20298;-69
2022/06/28 10:44:31;;;;;;;2.40;1.37;;;;;;;20.34;50.18;101911.34;5293534;28;20043;-69
2022/06/28 10:47:04;;;;;;;4.45;2.08;;;;;;;20.41;50.34;101917.34;5290968;28;20301;-72
2022/06/28 10:49:57;;;;;;;3.15;1.27;;;;;;;20.59;50.70;101904.09;5293329;28;20116;-69
2022/06/28 10:52:35;;;;;;;2.58;1.33;;;;;;;20.59;50.22;101908.91;5296811;28;20073;-69
2022/06/28 10:55:06;;;;;;;3.50;1.27;;;;;;;20.43;50.13;101897.28;5292755;28;20036;-69
2022/06/28 10:57:40;;;;;;;6.53;1.50;;;;;;;20.55;49.73;101902.28;5290662;28;20393;-69
2022/06/28 11:00:21;;;;;;;4.68;1.83;;;;;;;20.85;49.68;101895.59;5288239;28;20286;-69
2022/06/28 11:02:55;;;;;;;2.95;1.05;;;;;;;20.69;48.65;101900.13;5294798;28;20028;-69
2022/06/28 11:05:54;;;;;;;4.13;1.70;;;;;;;20.87;49.98;101897.28;5292992;28;20044;-69
2022/06/28 11:08:49;;;;;;;4.28;1.30;;;;;;;20.94;49.50;101887.16;5279244;28;21448;-69
2022/06/28 11:11:20;;;;;;;2.38;1.30;;;;;;;20.80;48.23;101892.97;5297018;28;20020;-69
2022/06/28 11:14:28;;;;;;;5.85;1.98;;;;;;;20.91;48.98;101887.78;5302272;28;20028;-69
2022/06/28 11:17:00;;;;;;;2.25;1.27;;;;;;;20.97;49.17;101888.47;5289484;28;20487;-70
2022/06/28 11:19:33;;;;;;;2.55;1.10;;;;;;;21.04;49.72;101881.16;5294790;28;20414;-71
2022/06/28 11:22:04;;;;;;;3.58;1.20;;;;;;;21.11;48.38;101876.97;5291281;28;20383;-69
2022/06/28 11:24:43;;;;;;;4.93;1.58;;;;;;;21.13;49.15;101878.28;5287725;28;20035;-68
2022/06/28 11:27:21;;;;;;;2.80;1.42;;;;;;;21.39;48.13;101874.56;5294914;28;20383;-67
2022/06/28 11:30:01;;;;;;;2.15;1.20;;;;;;;21.24;48.37;101873.97;5300992;28;20039;-69
2022/06/28 11:32:38;;;;;;;3.15;1.25;;;;;;;21.20;47.98;101864.50;5287149;28;20058;-70
2022/06/28 11:35:16;;;;;;;4.20;1.42;;;;;;;21.24;47.68;101859.84;5285187;28;20118;-70
2022/06/28 11:37:53;;;;;;;5.55;1.50;;;;;;;21.25;47.09;101869.13;5288854;28;20085;-70
2022/06/28 11:40:28;;;;;;;2.50;1.08;;;;;;;21.46;47.39;101858.78;5290379;28;20036;-70
2022/06/28 11:43:04;;;;;;;3.80;1.73;;;;;;;21.54;47.67;101854.25;5297667;28;20028;-71
2022/06/28 11:45:47;;;;;;;4.68;1.83;;;;;;;21.67;48.76;101858.00;5297956;28;20025;-70
2022/06/28 11:48:21;;;;;;;3.38;1.27;;;;;;;21.46;46.11;101855.13;5294529;28;20436;-70
2022/06/28 11:50:53;;;;;;;3.45;1.35;;;;;;;21.43;47.06;101853.81;5289533;28;20024;-71
2022/06/28 11:53:26;;;;;;;3.15;1.33;;;;;;;21.36;47.48;101858.28;5292559;28;20137;-69
2022/06/28 11:55:59;;;;;;;5.43;1.38;;;;;;;21.38;47.82;101856.81;5288244;28;20085;-69
2022/06/28 11:58:32;;;;;;;4.80;1.50;;;;;;;21.45;47.56;101851.47;5293140;28;20483;-69
2022/06/28 12:01:12;;;;;;;3.60;1.30;;;;;;;21.58;47.10;101848.78;5291388;28;20032;-69
2022/06/28 12:03:43;;;;;;;3.42;1.50;;;;;;;21.56;46.82;101849.09;5288071;28;20055;-69
2022/06/28 12:06:29;;;;;;;2.93;1.60;;;;;;;21.60;48.03;101852.91;5293222;28;20081;-70
2022/06/28 12:09:05;;;;;;;2.75;1.90;;;;;;;21.68;48.34;101852.03;5302459;28;20305;-69
2022/06/28 12:11:37;;;;;;;1.98;1.17;;;;;;;21.70;47.50;101846.00;5310048;28;20027;-68
2022/06/28 12:14:14;;;;;;;6.18;3.45;;;;;;;21.77;46.59;101853.97;5300298;28;20035;-69
2022/06/28 12:16:57;;;;;;;2.30;1.38;;;;;;;21.76;46.63;101846.66;5298506;28;20024;-69
2022/06/28 12:19:30;;;;;;;4.97;1.77;;;;;;;21.92;45.79;101847.72;5296038;28;20485;-69
2022/06/28 12:22:23;;;;;;;4.55;1.40;;;;;;;22.30;45.91;101849.59;5289431;28;20029;-69
2022/06/28 12:24:56;;;;;;;4.30;1.25;;;;;;;22.24;45.54;101836.84;5292882;28;20029;-68
2022/06/28 12:27:31;;;;;;;3.53;1.40;;;;;;;22.32;46.54;101831.13;5295022;28;20476;-69
2022/06/28 12:30:06;;;;;;;4.28;1.83;;;;;;;22.46;47.25;101836.47;5302198;28;20028;-69
2022/06/28 12:32:37;;;;;;;4.15;1.20;;;;;;;22.49;49.04;101835.78;5294284;28;20026;-69
2022/06/28 12:35:09;;;;;;;3.78;1.25;;;;;;;22.52;44.79;101835.13;5292234;28;20506;-69
2022/06/28 12:37:41;;;;;;;3.97;1.40;;;;;;;22.72;44.48;101824.91;5266418;28;20029;-70
2022/06/28 12:40:14;;;;;;;3.22;1.40;;;;;;;22.91;45.07;101844.19;5298208;28;20024;-68
2022/06/28 12:42:45;;;;;;;2.05;1.20;;;;;;;22.56;43.92;101836.06;5291295;28;20119;-69
2022/06/28 12:45:16;;;;;;;4.15;1.27;;;;;;;22.48;44.23;101831.31;5298544;28;20119;-68
2022/06/28 12:47:48;;;;;;;3.10;1.27;;;;;;;22.49;44.55;101821.66;5299633;28;20036;-68
2022/06/28 12:50:19;;;;;;;5.10;3.10;;;;;;;22.73;44.74;101825.75;5296323;28;20027;-67
2022/06/28 12:52:50;;;;;;;3.25;1.48;;;;;;;23.02;44.30;101826.78;5299696;28;20165;-69
2022/06/28 12:55:22;;;;;;;3.05;1.33;;;;;;;23.00;43.31;101827.94;5303512;28;20479;-68
2022/06/28 12:57:53;;;;;;;4.18;1.30;;;;;;;23.28;42.72;101821.63;5294368;28;20044;-72
2022/06/28 13:00:25;;;;;;;2.95;1.45;;;;;;;23.32;42.01;101816.91;5290527;28;20130;-69
2022/06/28 13:02:56;;;;;;;4.35;1.33;;;;;;;23.21;41.08;101810.06;5302569;28;20047;-69
2022/06/28 13:05:27;;;;;;;2.85;1.05;;;;;;;23.28;41.11;101815.13;5301764;28;20024;-69
2022/06/28 13:08:00;;;;;;;4.82;1.50;;;;;;;23.18;42.14;101822.06;5301990;28;20081;-70
2022/06/28 13:10:31;;;;;;;3.15;1.30;;;;;;;23.11;42.80;101819.00;5298332;28;20024;-69
2022/06/28 13:13:03;;;;;;;10.55;9.43;;;;;;;23.08;42.28;101811.22;5305005;28;20032;-69
2022/06/28 13:15:34;;;;;;;5.72;2.35;;;;;;;23.18;41.88;101807.94;5299906;28;20103;-69
2022/06/28 13:18:05;;;;;;;1.70;1.30;;;;;;;23.05;41.43;101801.44;5302231;28;20028;-68
2022/06/28 13:20:36;;;;;;;3.38;1.38;;;;;;;23.13;42.42;101796.84;5294012;28;20111;-69
2022/06/28 13:23:08;;;;;;;6.07;1.58;;;;;;;23.20;42.32;101788.59;5296869;28;20487;-69
2022/06/28 13:25:39;;;;;;;4.43;1.60;;;;;;;23.14;42.60;101790.03;5294917;28;20506;-69
2022/06/28 13:28:11;;;;;;;2.63;1.52;;;;;;;23.26;42.89;101786.34;5294837;28;20527;-70
2022/06/28 13:30:42;;;;;;;3.88;1.30;;;;;;;23.60;42.78;101773.72;5305369;28;20472;-70
2022/06/28 13:33:14;;;;;;;3.28;1.33;;;;;;;23.53;42.66;101779.16;5295423;28;20478;-68
2022/06/28 13:35:45;;;;;;;3.90;1.30;;;;;;;23.43;42.70;101781.28;5297164;28;20491;-70
2022/06/28 13:38:17;;;;;;;3.75;1.52;;;;;;;23.40;43.44;101775.50;5296325;28;20032;-70
2022/06/28 13:40:49;;;;;;;5.20;1.40;;;;;;;23.53;43.57;101773.50;5298324;28;20093;-70
2022/06/28 13:43:33;;;;;;;3.13;1.55;;;;;;;23.64;42.28;101771.81;5304067;28;20028;-69
2022/06/28 13:46:09;;;;;;;4.40;3.83;;;;;;;23.66;42.09;101766.63;5303945;28;20032;-68
2022/06/28 13:48:40;;;;;;;91.10;83.45;;;;;;;23.61;42.07;101773.34;5288746;28;20059;-69
2022/06/28 13:51:11;;;;;;;10.45;9.27;;;;;;;23.58;42.41;101767.59;5294296;28;20068;-69
2022/06/28 13:53:43;;;;;;;4.50;1.40;;;;;;;23.32;41.17;101765.97;5299491;28;20020;-69
2022/06/28 13:56:15;;;;;;;3.60;1.60;;;;;;;23.29;41.21;101766.69;5302105;28;20100;-69
2022/06/28 13:58:46;;;;;;;7.47;1.50;;;;;;;23.33;40.90;101767.59;5291773;28;20170;-69
2022/06/28 14:01:18;;;;;;;3.83;1.30;;;;;;;23.53;40.88;101763.00;5303988;28;20039;-70
2022/06/28 14:03:49;;;;;;;3.50;1.63;;;;;;;23.67;40.39;101762.59;5300041;28;20393;-70
2022/06/28 14:06:21;;;;;;;1.77;1.00;;;;;;;23.68;40.87;101754.94;5295460;28;20447;-72
2022/06/28 14:08:52;;;;;;;5.00;1.38;;;;;;;23.60;40.03;101756.75;5292168;28;20020;-72
2022/06/28 14:11:23;;;;;;;2.90;1.30;;;;;;;23.47;39.62;101757.91;5301116;28;20051;-72
2022/06/28 14:13:55;;;;;;;4.78;1.50;;;;;;;23.48;40.89;101749.09;5289796;28;20101;-70
2022/06/28 14:16:26;;;;;;;3.45;1.50;;;;;;;23.82;40.11;101747.72;5303230;28;20055;-70
2022/06/28 14:18:57;;;;;;;3.42;1.60;;;;;;;23.97;39.54;101746.13;5299450;28;20070;-70
2022/06/28 14:21:30;;;;;;;3.35;1.75;;;;;;;24.01;40.21;101743.44;5302492;28;20518;-70
2022/06/28 14:24:01;;;;;;;2.67;1.30;;;;;;;23.96;39.69;101744.50;5293079;28;20612;-69
2022/06/28 14:26:33;;;;;;;5.05;1.35;;;;;;;23.83;38.33;101732.41;5297199;28;20032;-70
2022/06/28 14:29:05;;;;;;;2.55;2.05;;;;;;;24.39;38.78;101727.88;5292342;28;20074;-70
2022/06/28 14:31:37;;;;;;;3.03;1.30;;;;;;;24.45;38.74;101729.31;5273151;28;20398;-70
2022/06/28 14:34:13;;;;;;;3.20;1.45;;;;;;;24.50;38.20;101723.38;5290939;28;20044;-72
2022/06/28 14:36:44;;;;;;;3.63;2.03;;;;;;;24.32;37.92;101722.84;5295587;28;20076;-71
2022/06/28 14:39:15;;;;;;;1.95;1.30;;;;;;;24.52;38.74;101721.00;5295378;28;20072;-73
2022/06/28 14:41:47;;;;;;;1.33;0.90;;;;;;;24.70;37.65;101718.63;5293783;28;20368;-72
2022/06/28 14:44:18;;;;;;;3.30;1.88;;;;;;;24.98;37.28;101710.03;5299601;28;20043;-73
2022/06/28 14:46:50;;;;;;;2.58;1.45;;;;;;;24.96;35.97;101709.56;5303293;28;20039;-69
2022/06/28 14:49:21;;;;;;;2.08;1.23;;;;;;;24.95;36.42;101699.38;5300077;28;20101;-72
2022/06/28 14:51:52;;;;;;;10.38;9.30;;;;;;;25.06;37.00;101703.31;5294078;28;20115;-73
2022/06/28 14:54:24;;;;;;;2.15;1.50;;;;;;;24.80;36.65;101700.22;5297113;28;20115;-73
2022/06/28 14:56:55;;;;;;;2.00;1.50;;;;;;;24.56;37.39;101696.38;5291672;28;20039;-72
2022/06/28 14:59:26;;;;;;;3.35;2.30;;;;;;;24.50;37.71;101697.84;5294695;28;20428;-71
2022/06/28 15:01:58;;;;;;;2.15;1.23;;;;;;;24.39;38.35;101696.69;5288864;28;20024;-70
2022/06/28 15:04:29;;;;;;;5.30;1.60;;;;;;;24.33;38.68;101689.66;5310721;28;20513;-71
2022/06/28 15:07:00;;;;;;;7.13;1.55;;;;;;;24.44;38.34;101680.25;5293539;28;20032;-71
2022/06/28 15:09:32;;;;;;;3.28;1.40;;;;;;;24.62;38.35;101679.91;5297710;28;20056;-71
2022/06/28 15:12:04;;;;;;;2.78;1.35;;;;;;;24.51;37.89;101679.63;5298177;28;20024;-72
2022/06/28 15:14:37;;;;;;;3.45;1.88;;;;;;;24.32;37.48;101674.66;5302451;28;20055;-69
2022/06/28 15:17:08;;;;;;;8.32;6.43;;;;;;;24.54;38.07;101669.56;5286779;28;20085;-70
2022/06/28 15:19:39;;;;;;;5.85;2.25;;;;;;;24.61;38.64;101673.41;5302001;28;20032;-71
2022/06/28 15:30:53;;;;;;;3.80;1.33;;;;;;;24.88;36.83;101657.50;5292451;28;20032;-70
2022/06/28 15:33:27;;;;;;;2.90;1.83;;;;;;;25.00;37.22;101648.03;5297555;28;20031;-70
2022/06/28 15:36:05;;;;;;;2.65;1.17;;;;;;;24.89;37.68;101647.78;5296197;28;20150;-70
2022/06/28 15:38:37;;;;;;;3.58;1.55;;;;;;;25.01;37.28;101640.34;5293762;28;20051;-71
2022/06/28 15:41:08;;;;;;;2.97;1.42;;;;;;;25.17;37.49;101641.97;5294256;28;20044;-69
2022/06/28 15:43:39;;;;;;;3.63;1.60;;;;;;;25.08;37.12;101632.84;5296136;28;20098;-70
2022/06/28 15:46:11;;;;;;;3.35;1.10;;;;;;;25.09;37.95;101628.78;5294130;28;20066;-70
2022/06/28 15:48:42;;;;;;;2.65;1.30;;;;;;;24.95;37.60;101622.78;5296377;28;20081;-71
2022/06/28 15:51:13;;;;;;;3.08;1.63;;;;;;;24.91;38.59;101621.88;5293261;28;20023;-69
2022/06/28 15:53:45;;;;;;;4.72;1.55;;;;;;;25.00;39.42;101624.50;5296190;28;20028;-70
2022/06/28 15:56:16;;;;;;;5.88;2.25;;;;;;;25.13;39.43;101628.88;5294487;28;20028;-70
2022/06/28 15:58:47;;;;;;;4.93;1.50;;;;;;;25.02;38.73;101622.13;5289757;28;20044;-69
2022/06/28 16:01:18;;;;;;;3.67;1.70;;;;;;;25.07;38.89;101625.50;5290909;28;20025;-70
2022/06/28 16:03:50;;;;;;;3.28;1.42;;;;;;;24.95;38.70;101619.94;5302450;28;20361;-69
2022/06/28 16:06:21;;;;;;;4.07;1.60;;;;;;;25.12;39.27;101622.38;5302000;28;20104;-70
2022/06/28 16:08:53;;;;;;;3.50;1.67;;;;;;;25.00;40.17;101613.97;5297282;28;20486;-71
2022/06/28 16:11:24;;;;;;;5.55;1.98;;;;;;;24.91;39.34;101608.53;5294683;28;20036;-73
2022/06/28 16:13:56;;;;;;;4.03;2.15;;;;;;;25.04;39.78;101617.72;5297815;28;20498;-71
2022/06/28 16:16:27;;;;;;;6.47;1.85;;;;;;;25.10;39.62;101612.59;5298511;28;20035;-71
2022/06/28 16:18:58;;;;;;;3.20;1.42;;;;;;;25.12;39.73;101613.84;5295488;28;20376;-70
2022/06/28 16:21:30;;;;;;;3.60;1.85;;;;;;;25.07;38.97;101619.81;5302545;28;20107;-71
2022/06/28 16:24:01;;;;;;;6.25;2.28;;;;;;;24.91;39.38;101607.69;5298618;28;20112;-71
2022/06/28 16:26:32;;;;;;;7.88;5.20;;;;;;;24.93;40.10;101613.84;5299530;28;20048;-71
2022/06/28 16:29:04;;;;;;;3.95;2.05;;;;;;;24.83;39.94;101608.72;5305745;28;20023;-70
2022/06/28 16:31:35;;;;;;;3.47;1.65;;;;;;;24.68;39.82;101608.38;5304996;28;20061;-70
2022/06/28 16:34:07;;;;;;;4.63;1.55;;;;;;;24.58;40.31;101611.78;5298694;28;20546;-72
2022/06/28 16:36:38;;;;;;;2.83;1.40;;;;;;;24.55;40.77;101606.03;5295239;28;20028;-72
2022/06/28 16:39:09;;;;;;;2.67;1.63;;;;;;;24.47;39.81;101605.84;5303614;28;20032;-71
2022/06/28 16:41:41;;;;;;;2.92;1.50;;;;;;;24.69;39.78;101604.34;5301000;28;20073;-72
2022/06/28 16:44:12;;;;;;;3.75;1.67;;;;;;;24.69;39.64;101614.88;5292363;28;20020;-72
2022/06/28 16:46:43;;;;;;;6.00;1.55;;;;;;;24.75;39.66;101604.91;5295215;28;20081;-72
2022/06/28 16:49:15;;;;;;;2.88;1.35;;;;;;;24.64;39.06;101604.63;5297012;28;20056;-72
2022/06/28 16:51:46;;;;;;;8.93;6.85;;;;;;;24.82;39.27;101601.41;5306074;28;20027;-71
2022/06/28 16:54:18;;;;;;;2.65;1.63;;;;;;;24.76;39.62;101602.88;5294094;28;20051;-72
2022/06/28 16:56:49;;;;;;;2.72;2.03;;;;;;;24.85;39.89;101612.84;5298683;28;20467;-71
2022/06/28 16:59:22;;;;;;;4.72;1.40;;;;;;;24.62;40.01;101603.34;5286212;28;20066;-72
2022/06/28 17:01:53;;;;;;;4.90;1.55;;;;;;;24.57;40.33;101606.47;5303993;28;20043;-71
2022/06/28 17:04:24;;;;;;;2.75;1.60;;;;;;;24.54;40.80;101593.84;5289590;28;20028;-72
2022/06/28 17:09:52;;;;;;;3.95;1.80;;;;;;;24.39;40.27;101588.97;5291258;28;20024;-72
2022/06/28 17:12:28;;;;;;;1.98;1.40;;;;;;;24.34;40.46;101586.41;5304945;28;20035;-71
2022/06/28 17:15:00;;;;;;;5.53;1.80;;;;;;;24.29;40.83;101579.84;5296515;28;20035;-71
2022/06/28 17:17:31;;;;;;;3.63;1.55;;;;;;;24.37;40.59;101585.72;5296506;28;20024;-72
2022/06/28 17:20:03;;;;;;;3.03;1.20;;;;;;;24.29;40.63;101581.88;5309430;28;20028;-72
2022/06/28 17:22:35;;;;;;;2.22;1.27;;;;;;;24.25;40.92;101584.59;5293247;28;20029;-73
2022/06/28 17:25:08;;;;;;;4.50;1.50;;;;;;;24.25;42.04;101583.78;5295555;28;20104;-72
2022/06/28 17:27:39;;;;;;;4.25;2.08;;;;;;;24.19;40.76;101571.09;5296900;28;20024;-72
2022/06/28 17:30:12;;;;;;;4.82;1.67;;;;;;;24.22;41.37;101576.84;5295706;28;20104;-72
